createdAt,value
2017-10-04T00:01:40.389Z,11.10
2017-10-04T00:04:08.686Z,11.10
2017-10-04T00:06:36.759Z,11.00
2017-10-04T00:09:04.903Z,11.10
2017-10-04T00:11:33.017Z,11.10
2017-10-04T00:14:01.129Z,11.20
2017-10-04T00:16:29.243Z,11.20
2017-10-04T00:18:57.317Z,11.20
2017-10-04T00:21:25.653Z,11.10
2017-10-04T00:23:54.746Z,11.10
2017-10-04T00:26:23.752Z,11.10
2017-10-04T00:28:52.598Z,11.00
2017-10-04T00:31:20.731Z,11.00
2017-10-04T00:33:48.812Z,11.00
2017-10-04T00:36:16.908Z,10.90
2017-10-04T00:38:45.077Z,11.00
2017-10-04T00:41:13.647Z,11.00
2017-10-04T00:43:41.844Z,10.90
2017-10-04T00:46:10.128Z,10.90
2017-10-04T00:48:38.208Z,10.90
2017-10-04T00:51:06.525Z,10.80
2017-10-04T00:53:34.647Z,10.80
2017-10-04T00:56:02.752Z,10.80
2017-10-04T00:58:30.899Z,10.80
2017-10-04T01:00:59.359Z,10.80
2017-10-04T01:03:27.457Z,10.90
2017-10-04T01:05:55.783Z,10.90
2017-10-04T01:08:23.855Z,10.90
2017-10-04T01:10:51.955Z,10.90
2017-10-04T01:13:20.074Z,10.90
2017-10-04T01:15:48.930Z,10.90
2017-10-04T01:18:17.117Z,10.90
2017-10-04T01:20:46.000Z,10.80
2017-10-04T01:23:14.107Z,10.80
2017-10-04T01:25:42.958Z,10.90
2017-10-04T01:28:11.048Z,10.80
2017-10-04T01:30:39.173Z,10.80
2017-10-04T01:35:39.492Z,10.80
2017-10-04T01:38:07.596Z,10.80
2017-10-04T01:40:35.674Z,10.80
2017-10-04T01:43:03.783Z,10.80
2017-10-04T01:45:31.862Z,10.80
2017-10-04T01:54:44.151Z,10.90
2017-10-04T01:57:12.262Z,10.90
2017-10-04T01:59:40.340Z,10.90
2017-10-04T02:02:08.443Z,10.90
2017-10-04T02:04:36.545Z,10.90
2017-10-04T02:07:04.619Z,10.70
2017-10-04T02:09:32.722Z,10.70
2017-10-04T02:12:00.862Z,10.80
2017-10-04T02:14:28.947Z,10.90
2017-10-04T02:16:57.039Z,10.80
2017-10-04T02:19:25.155Z,10.90
2017-10-04T02:21:53.239Z,10.90
2017-10-04T02:24:21.337Z,11.00
2017-10-04T02:26:49.437Z,10.90
2017-10-04T02:29:17.511Z,10.90
2017-10-04T02:31:45.619Z,11.00
2017-10-04T02:34:13.727Z,11.00
2017-10-04T02:36:41.855Z,11.00
2017-10-04T02:39:09.941Z,11.00
2017-10-04T02:41:38.047Z,11.10
2017-10-04T02:44:06.253Z,11.00
2017-10-04T02:46:34.344Z,11.00
2017-10-04T02:49:02.445Z,11.00
2017-10-04T02:51:30.555Z,11.00
2017-10-04T02:53:58.676Z,11.00
2017-10-04T02:56:26.761Z,11.00
2017-10-04T02:58:54.841Z,11.00
2017-10-04T03:01:22.944Z,11.00
2017-10-04T03:03:51.047Z,11.00
2017-10-04T03:06:19.912Z,11.00
2017-10-04T03:08:48.001Z,10.90
2017-10-04T03:11:16.105Z,10.90
2017-10-04T03:13:44.183Z,10.90
2017-10-04T03:16:12.260Z,10.90
2017-10-04T03:18:40.359Z,10.90
2017-10-04T03:21:08.455Z,10.90
2017-10-04T03:23:36.567Z,10.90
2017-10-04T03:26:05.591Z,11.00
2017-10-04T03:28:33.864Z,10.90
2017-10-04T03:31:01.978Z,10.90
2017-10-04T03:33:30.071Z,11.00
2017-10-04T03:35:58.167Z,10.90
2017-10-04T03:38:26.273Z,10.90
2017-10-04T03:40:54.590Z,10.90
2017-10-04T03:43:22.674Z,10.90
2017-10-04T03:45:50.977Z,10.90
2017-10-04T03:48:20.003Z,10.90
2017-10-04T03:50:49.305Z,10.80
2017-10-04T03:53:18.528Z,10.90
2017-10-04T03:55:46.690Z,10.90
2017-10-04T03:58:14.799Z,10.80
2017-10-04T04:00:42.910Z,10.90
2017-10-04T04:03:11.247Z,11.00
2017-10-04T04:05:39.363Z,10.90
2017-10-04T04:08:07.468Z,10.90
2017-10-04T04:10:36.346Z,10.90
2017-10-04T04:13:04.435Z,10.90
2017-10-04T04:15:33.292Z,10.90
2017-10-04T04:18:02.531Z,11.00
2017-10-04T04:20:30.612Z,10.90
2017-10-04T04:22:58.715Z,10.90
2017-10-04T04:25:26.846Z,10.90
2017-10-04T04:27:55.227Z,10.90
2017-10-04T04:30:23.592Z,10.90
2017-10-04T04:32:52.644Z,10.80
2017-10-04T04:35:20.768Z,10.80
2017-10-04T04:38:06.741Z,10.80
2017-10-04T04:40:35.615Z,10.80
2017-10-04T04:43:03.709Z,10.80
2017-10-04T04:45:32.556Z,10.80
2017-10-04T04:48:00.691Z,10.90
2017-10-04T04:50:29.024Z,10.80
2017-10-04T04:52:57.175Z,10.80
2017-10-04T04:55:25.497Z,10.80
2017-10-04T04:57:53.645Z,10.80
2017-10-04T05:00:21.756Z,10.80
2017-10-04T05:02:49.868Z,10.70
2017-10-04T05:05:17.955Z,10.70
2017-10-04T05:07:46.058Z,10.70
2017-10-04T05:10:14.161Z,10.80
2017-10-04T05:12:42.369Z,10.80
2017-10-04T05:15:13.835Z,10.80
2017-10-04T05:17:42.228Z,10.70
2017-10-04T05:20:10.377Z,10.60
2017-10-04T05:22:38.482Z,10.60
2017-10-04T05:25:06.584Z,10.70
2017-10-04T05:27:34.673Z,10.70
2017-10-04T05:30:02.799Z,10.70
2017-10-04T05:32:30.890Z,10.70
2017-10-04T05:34:58.988Z,10.70
2017-10-04T05:37:27.098Z,10.70
2017-10-04T05:39:55.260Z,10.70
2017-10-04T05:42:23.342Z,10.60
2017-10-04T05:44:52.411Z,10.60
2017-10-04T05:47:21.241Z,10.60
2017-10-04T05:49:49.365Z,10.60
2017-10-04T05:52:18.523Z,10.60
2017-10-04T05:54:47.532Z,10.60
2017-10-04T05:57:15.644Z,10.50
2017-10-04T05:59:43.736Z,10.40
2017-10-04T06:02:11.832Z,10.40
2017-10-04T06:04:39.980Z,10.50
2017-10-04T06:07:08.111Z,10.50
2017-10-04T06:09:36.213Z,10.50
2017-10-04T06:12:04.307Z,10.50
2017-10-04T06:14:32.431Z,10.50
2017-10-04T06:17:01.394Z,10.50
2017-10-04T06:19:29.496Z,10.50
2017-10-04T06:21:57.611Z,10.50
2017-10-04T06:24:25.712Z,10.50
2017-10-04T06:26:53.802Z,10.60
2017-10-04T06:29:21.902Z,10.60
2017-10-04T06:31:50.046Z,10.60
2017-10-04T06:34:18.144Z,10.70
2017-10-04T06:36:46.267Z,10.80
2017-10-04T06:39:15.135Z,10.70
2017-10-04T06:41:43.224Z,10.70
2017-10-04T06:44:11.342Z,10.70
2017-10-04T06:46:39.470Z,10.70
2017-10-04T06:49:07.553Z,10.70
2017-10-04T06:51:35.667Z,10.60
2017-10-04T06:54:03.768Z,10.70
2017-10-04T06:56:31.888Z,10.70
2017-10-04T06:59:00.035Z,10.80
2017-10-04T07:01:28.120Z,10.80
2017-10-04T07:03:57.211Z,10.80
2017-10-04T07:06:26.119Z,10.80
2017-10-04T07:08:54.230Z,10.80
2017-10-04T07:11:22.348Z,10.80
2017-10-04T07:13:51.531Z,10.90
2017-10-04T07:16:19.636Z,10.90
2017-10-04T07:18:47.706Z,10.80
2017-10-04T07:21:15.798Z,10.90
2017-10-04T07:23:43.981Z,10.90
2017-10-04T07:26:12.078Z,10.90
2017-10-04T07:28:40.625Z,10.90
2017-10-04T07:31:08.707Z,10.90
2017-10-04T07:33:37.379Z,10.90
2017-10-04T07:36:05.459Z,11.00
2017-10-04T07:38:33.575Z,11.00
2017-10-04T07:41:01.659Z,11.00
2017-10-04T07:43:30.548Z,11.10
2017-10-04T07:45:59.427Z,11.10
2017-10-04T07:48:28.647Z,11.10
2017-10-04T07:50:57.626Z,11.20
2017-10-04T07:53:26.068Z,11.20
2017-10-04T07:55:54.203Z,11.20
2017-10-04T07:58:22.372Z,11.20
2017-10-04T08:00:50.455Z,11.30
2017-10-04T08:03:18.566Z,11.20
2017-10-04T08:05:46.639Z,11.20
2017-10-04T08:08:14.979Z,11.20
2017-10-04T08:10:43.083Z,11.20
2017-10-04T08:13:11.170Z,11.20
2017-10-04T08:15:39.303Z,11.30
2017-10-04T08:18:07.400Z,11.40
2017-10-04T08:20:35.530Z,11.50
2017-10-04T08:23:04.415Z,11.50
2017-10-04T08:25:32.521Z,11.50
2017-10-04T08:28:00.615Z,11.60
2017-10-04T08:30:29.714Z,11.50
2017-10-04T08:32:58.816Z,11.60
2017-10-04T08:35:27.951Z,11.70
2017-10-04T08:37:56.069Z,11.70
2017-10-04T08:40:24.191Z,11.70
2017-10-04T08:42:52.296Z,11.70
2017-10-04T08:45:20.444Z,11.80
2017-10-04T08:47:58.393Z,11.80
2017-10-04T08:50:26.501Z,11.80
2017-10-04T08:52:54.654Z,11.80
2017-10-04T08:55:22.911Z,11.90
2017-10-04T08:57:51.027Z,11.90
2017-10-04T09:00:19.108Z,11.90
2017-10-04T09:02:47.212Z,12.00
2017-10-04T09:05:33.127Z,11.90
2017-10-04T09:08:01.281Z,11.90
2017-10-04T09:10:29.370Z,12.00
2017-10-04T09:12:57.555Z,12.10
2017-10-04T09:15:25.652Z,12.10
2017-10-04T09:17:53.798Z,12.10
2017-10-04T09:20:21.909Z,12.10
2017-10-04T09:22:50.794Z,12.20
2017-10-04T09:25:18.923Z,12.20
2017-10-04T09:27:47.034Z,12.30
2017-10-04T09:30:15.119Z,12.30
2017-10-04T09:32:43.239Z,12.30
2017-10-04T09:35:11.325Z,12.40
2017-10-04T09:37:39.428Z,12.50
2017-10-04T09:40:07.552Z,12.50
2017-10-04T09:42:35.748Z,12.50
2017-10-04T09:45:03.869Z,12.50
2017-10-04T09:47:31.967Z,12.60
2017-10-04T09:50:00.442Z,12.70
2017-10-04T09:52:29.542Z,12.80
2017-10-04T09:54:57.638Z,12.70
2017-10-04T09:57:25.744Z,12.70
2017-10-04T09:59:53.843Z,12.80
2017-10-04T10:02:22.017Z,12.80
2017-10-04T10:04:50.111Z,12.80
2017-10-04T10:07:18.235Z,12.80
2017-10-04T10:09:47.111Z,12.80
2017-10-04T10:12:15.254Z,12.90
2017-10-04T10:14:43.360Z,12.80
2017-10-04T10:17:11.446Z,12.80
2017-10-04T10:19:40.980Z,12.70
2017-10-04T10:22:10.023Z,12.70
2017-10-04T10:24:38.130Z,12.80
2017-10-04T10:27:06.977Z,12.80
2017-10-04T10:29:35.068Z,12.80
2017-10-04T10:32:03.194Z,12.80
2017-10-04T10:34:31.276Z,12.80
2017-10-04T10:36:59.392Z,12.90
2017-10-04T10:39:27.475Z,12.90
2017-10-04T10:41:55.593Z,12.90
2017-10-04T10:44:23.743Z,13.00
2017-10-04T10:46:51.826Z,13.00
2017-10-04T10:49:19.944Z,13.00
2017-10-04T10:51:48.048Z,13.00
2017-10-04T10:54:16.911Z,13.00
2017-10-04T10:56:45.069Z,13.00
2017-10-04T10:59:13.161Z,13.00
2017-10-04T11:01:41.267Z,13.10
2017-10-04T11:04:09.349Z,13.10
2017-10-04T11:06:37.455Z,13.10
2017-10-04T11:09:05.556Z,13.20
2017-10-04T11:11:33.660Z,13.30
2017-10-04T11:14:01.847Z,13.30
2017-10-04T11:16:30.028Z,13.40
2017-10-04T11:18:58.166Z,13.40
2017-10-04T11:21:26.269Z,13.30
2017-10-04T11:23:54.424Z,13.30
2017-10-04T11:26:22.597Z,13.30
2017-10-04T11:28:50.740Z,13.30
2017-10-04T11:31:18.836Z,13.40
2017-10-04T11:33:48.034Z,13.40
2017-10-04T11:36:16.155Z,13.40
2017-10-04T11:38:44.534Z,13.50
2017-10-04T11:41:12.827Z,13.50
2017-10-04T11:43:41.160Z,13.60
2017-10-04T11:46:09.263Z,13.40
2017-10-04T11:48:37.352Z,13.30
2017-10-04T11:51:06.294Z,13.30
2017-10-04T11:53:34.382Z,13.20
2017-10-04T11:56:02.495Z,13.20
2017-10-04T11:58:30.615Z,13.30
2017-10-04T12:00:58.706Z,13.30
2017-10-04T12:03:26.827Z,13.20
2017-10-04T12:05:54.911Z,13.30
2017-10-04T12:08:23.063Z,13.30
2017-10-04T12:10:51.417Z,13.30
2017-10-04T12:13:20.446Z,13.40
2017-10-04T12:15:49.335Z,13.40
2017-10-04T12:18:18.263Z,13.40
2017-10-04T12:20:46.767Z,13.50
2017-10-04T12:23:14.871Z,13.60
2017-10-04T12:25:42.956Z,13.60
2017-10-04T12:28:11.063Z,13.60
2017-10-04T12:30:39.182Z,13.50
2017-10-04T12:33:07.273Z,13.60
2017-10-04T12:35:36.146Z,13.60
2017-10-04T12:38:04.410Z,13.50
2017-10-04T12:40:32.540Z,13.60
2017-10-04T12:43:00.651Z,13.60
2017-10-04T12:45:29.684Z,13.60
2017-10-04T12:47:57.800Z,13.50
2017-10-04T12:50:26.437Z,13.40
2017-10-04T12:52:54.512Z,13.40
2017-10-04T12:55:23.377Z,13.30
2017-10-04T12:57:51.481Z,13.30
2017-10-04T13:00:19.598Z,13.30
2017-10-04T13:02:47.773Z,13.40
2017-10-04T13:05:16.204Z,13.40
2017-10-04T13:07:45.080Z,13.40
2017-10-04T13:10:13.975Z,13.30
2017-10-04T13:12:42.871Z,13.40
2017-10-04T13:15:13.089Z,13.30
2017-10-04T13:17:41.219Z,13.30
2017-10-04T13:20:10.330Z,13.30
2017-10-04T13:22:38.426Z,13.30
2017-10-04T13:25:07.007Z,13.30
2017-10-04T13:27:35.080Z,13.30
2017-10-04T13:30:03.211Z,13.30
2017-10-04T13:32:31.449Z,13.30
2017-10-04T13:35:00.748Z,13.30
2017-10-04T13:37:28.873Z,13.30
2017-10-04T13:39:56.982Z,13.30
2017-10-04T13:42:25.136Z,13.30
2017-10-04T13:44:53.271Z,13.30
2017-10-04T13:47:21.369Z,13.30
2017-10-04T13:49:49.529Z,13.20
2017-10-04T13:52:19.556Z,13.20
2017-10-04T13:54:47.663Z,13.20
2017-10-04T13:57:15.775Z,13.20
2017-10-04T13:59:43.908Z,13.20
2017-10-04T14:02:12.760Z,13.20
2017-10-04T14:04:40.869Z,13.20
2017-10-04T14:07:08.997Z,13.30
2017-10-04T14:09:37.088Z,13.20
2017-10-04T14:12:05.193Z,13.30
2017-10-04T14:14:33.296Z,13.30
2017-10-04T14:17:01.404Z,13.30
2017-10-04T14:19:29.519Z,13.20
2017-10-04T14:21:57.646Z,13.20
2017-10-04T14:24:25.798Z,13.20
2017-10-04T14:26:54.094Z,13.20
2017-10-04T14:29:22.250Z,13.20
2017-10-04T14:31:50.339Z,13.20
2017-10-04T14:34:18.431Z,13.20
2017-10-04T14:36:47.477Z,13.10
2017-10-04T14:39:15.571Z,13.10
2017-10-04T14:41:43.660Z,13.10
2017-10-04T14:44:11.786Z,13.20
2017-10-04T14:46:39.900Z,13.20
2017-10-04T14:49:08.011Z,13.10
2017-10-04T14:51:37.022Z,13.10
2017-10-04T14:54:05.131Z,13.10
2017-10-04T14:56:33.280Z,13.10
2017-10-04T14:59:01.386Z,13.00
2017-10-04T15:01:29.570Z,13.00
2017-10-04T15:03:57.644Z,13.00
2017-10-04T15:06:25.759Z,13.00
2017-10-04T15:08:53.867Z,13.00
2017-10-04T15:11:22.024Z,13.00
2017-10-04T15:13:50.312Z,13.00
2017-10-04T15:16:19.219Z,13.00
2017-10-04T15:18:47.296Z,12.90
2017-10-04T15:21:15.398Z,12.90
2017-10-04T15:23:44.278Z,12.90
2017-10-04T15:26:12.438Z,12.90
2017-10-04T15:28:40.518Z,12.90
2017-10-04T15:31:08.623Z,12.90
2017-10-04T15:33:36.775Z,12.90
2017-10-04T15:36:04.886Z,12.90
2017-10-04T15:38:32.980Z,12.90
2017-10-04T15:41:01.086Z,12.90
2017-10-04T15:43:29.197Z,12.80
2017-10-04T15:45:57.272Z,12.90
2017-10-04T15:48:25.384Z,12.90
2017-10-04T15:50:53.466Z,12.90
2017-10-04T15:53:21.593Z,12.90
2017-10-04T15:55:49.697Z,12.80
2017-10-04T15:58:18.708Z,12.90
2017-10-04T16:00:46.786Z,12.80
2017-10-04T16:03:14.897Z,12.90
2017-10-04T16:05:43.020Z,12.80
2017-10-04T16:08:11.104Z,12.80
2017-10-04T16:10:39.264Z,12.80
2017-10-04T16:13:07.363Z,12.80
2017-10-04T16:15:35.492Z,12.80
2017-10-04T16:18:03.589Z,12.80
2017-10-04T16:20:31.711Z,12.80
2017-10-04T16:23:00.232Z,12.80
2017-10-04T16:25:29.340Z,12.80
2017-10-04T16:27:57.439Z,12.80
2017-10-04T16:30:26.343Z,12.80
2017-10-04T16:32:54.451Z,12.80
2017-10-04T16:35:22.619Z,12.80
2017-10-04T16:37:50.706Z,12.80
2017-10-04T16:40:18.815Z,12.80
2017-10-04T16:42:47.710Z,12.70
2017-10-04T16:45:16.272Z,12.70
2017-10-04T16:47:44.380Z,12.70
2017-10-04T16:50:12.476Z,12.80
2017-10-04T16:52:40.603Z,12.70
2017-10-04T16:55:09.469Z,12.70
2017-10-04T16:57:37.608Z,12.70
2017-10-04T17:00:05.744Z,12.70
2017-10-04T17:02:34.608Z,12.70
2017-10-04T17:05:02.700Z,12.70
2017-10-04T17:07:31.586Z,12.70
2017-10-04T17:09:59.676Z,12.70
2017-10-04T17:12:30.972Z,12.70
2017-10-04T17:14:59.076Z,12.70
2017-10-04T17:17:27.396Z,12.70
2017-10-04T17:19:55.596Z,12.70
2017-10-04T17:22:23.683Z,12.70
2017-10-04T17:24:52.493Z,12.60
2017-10-04T17:27:21.536Z,12.70
2017-10-04T17:29:49.660Z,12.70
2017-10-04T17:32:18.548Z,12.70
2017-10-04T17:34:46.879Z,12.70
2017-10-04T17:37:14.995Z,12.70
2017-10-04T17:39:43.155Z,12.70
2017-10-04T17:42:11.296Z,12.60
2017-10-04T17:44:39.394Z,12.60
2017-10-04T17:47:08.564Z,12.60
2017-10-04T17:49:36.698Z,12.60
2017-10-04T17:52:06.384Z,12.60
2017-10-04T17:54:34.549Z,12.60
2017-10-04T17:57:02.740Z,12.60
2017-10-04T17:59:30.867Z,12.60
2017-10-04T18:01:59.016Z,12.50
2017-10-04T18:04:27.168Z,12.50
2017-10-04T18:06:56.073Z,12.50
2017-10-04T18:09:25.000Z,12.50
2017-10-04T18:11:53.116Z,12.50
2017-10-04T18:14:21.218Z,12.50
2017-10-04T18:16:50.080Z,12.50
2017-10-04T18:19:18.215Z,12.50
2017-10-04T18:21:48.936Z,12.60
2017-10-04T18:24:17.056Z,12.50
2017-10-04T18:26:45.943Z,12.50
2017-10-04T18:29:14.023Z,12.50
2017-10-04T18:31:42.149Z,12.50
2017-10-04T18:34:10.491Z,12.50
2017-10-04T18:36:38.618Z,12.50
2017-10-04T18:39:06.720Z,12.50
2017-10-04T18:41:35.603Z,12.50
2017-10-04T18:44:04.145Z,12.50
2017-10-04T18:46:32.298Z,12.50
2017-10-04T18:49:01.198Z,12.50
2017-10-04T18:51:29.308Z,12.60
2017-10-04T18:53:57.437Z,12.50
2017-10-04T18:56:25.531Z,12.50
2017-10-04T18:58:53.646Z,12.60
2017-10-04T19:01:22.587Z,12.60
2017-10-04T19:03:50.708Z,12.50
2017-10-04T19:06:18.802Z,12.50
2017-10-04T19:08:47.710Z,12.60
2017-10-04T19:11:15.803Z,12.60
2017-10-04T19:13:43.904Z,12.50
2017-10-04T19:16:12.008Z,12.60
2017-10-04T19:18:40.903Z,12.50
2017-10-04T19:21:09.796Z,12.60
2017-10-04T19:23:37.912Z,12.60
2017-10-04T19:26:06.019Z,12.60
2017-10-04T19:28:34.138Z,12.60
2017-10-04T19:31:02.243Z,12.60
2017-10-04T19:33:30.359Z,12.60
2017-10-04T19:35:59.227Z,12.60
2017-10-04T19:38:27.339Z,12.60
2017-10-04T19:40:55.441Z,12.60
2017-10-04T19:43:23.550Z,12.60
2017-10-04T19:45:52.475Z,12.60
2017-10-04T19:48:20.578Z,12.60
2017-10-04T19:50:48.755Z,12.60
2017-10-04T19:53:17.627Z,12.60
2017-10-04T19:55:45.710Z,12.60
2017-10-04T19:58:13.802Z,12.50
2017-10-04T20:00:41.895Z,12.50
2017-10-04T20:03:10.033Z,12.50
2017-10-04T20:05:38.126Z,12.50
2017-10-04T20:08:06.341Z,12.50
2017-10-04T20:10:34.533Z,12.60
2017-10-04T20:13:02.667Z,12.60
2017-10-04T20:15:30.881Z,12.60
2017-10-04T20:17:59.030Z,12.60
2017-10-04T20:20:27.232Z,12.60
2017-10-04T20:22:55.336Z,12.50
2017-10-04T20:25:23.443Z,12.50
2017-10-04T20:27:51.626Z,12.60
2017-10-04T20:30:21.159Z,12.60
2017-10-04T20:32:49.452Z,12.50
2017-10-04T20:35:17.724Z,12.60
2017-10-04T20:37:46.614Z,12.60
2017-10-04T20:40:14.703Z,12.60
2017-10-04T20:42:43.257Z,12.60
2017-10-04T20:45:12.124Z,12.60
2017-10-04T20:47:40.257Z,12.60
2017-10-04T20:50:08.819Z,12.60
2017-10-04T20:52:37.115Z,12.60
2017-10-04T20:55:05.369Z,12.60
2017-10-04T20:57:33.479Z,12.50
2017-10-04T21:00:01.605Z,12.60
2017-10-04T21:02:29.756Z,12.60
2017-10-04T21:04:59.028Z,12.60
2017-10-04T21:07:27.259Z,12.60
2017-10-04T21:09:55.441Z,12.60
2017-10-04T21:12:23.619Z,12.60
2017-10-04T21:14:52.099Z,12.60
2017-10-04T21:17:20.208Z,12.60
2017-10-04T21:19:48.390Z,12.50
2017-10-04T21:22:16.590Z,12.50
2017-10-04T21:24:44.968Z,12.60
2017-10-04T21:27:13.527Z,12.60
2017-10-04T21:29:41.756Z,12.50
2017-10-04T21:32:09.897Z,12.50
2017-10-04T21:34:38.772Z,12.50
2017-10-04T21:37:07.798Z,12.50
2017-10-04T21:39:36.524Z,12.50
2017-10-04T21:48:49.839Z,12.50
2017-10-04T21:51:19.684Z,12.50
2017-10-04T21:53:47.768Z,12.50
2017-10-04T21:56:15.985Z,12.50
2017-10-04T21:58:44.154Z,12.50
2017-10-04T22:01:13.041Z,12.50
2017-10-04T22:03:41.360Z,12.50
2017-10-04T22:06:09.436Z,12.50
2017-10-04T22:08:37.550Z,12.50
2017-10-04T22:11:05.655Z,12.50
2017-10-04T22:13:33.954Z,12.50
2017-10-04T22:16:02.061Z,12.50
2017-10-04T22:18:30.156Z,12.50
2017-10-04T22:20:59.044Z,12.50
2017-10-04T22:23:27.915Z,12.40
2017-10-04T22:25:56.043Z,12.40
2017-10-04T22:28:24.139Z,12.40
2017-10-04T22:30:52.211Z,12.40
2017-10-04T22:33:20.313Z,12.40
2017-10-04T22:35:48.408Z,12.40
2017-10-04T22:38:16.588Z,12.40
2017-10-04T22:40:45.432Z,12.40
2017-10-04T22:43:13.540Z,12.40
2017-10-04T22:45:42.442Z,12.30
2017-10-04T22:48:10.563Z,12.30
2017-10-04T22:50:38.672Z,12.30
2017-10-04T22:53:06.748Z,12.30
2017-10-04T22:55:35.864Z,12.30
2017-10-04T22:58:04.163Z,12.30
2017-10-04T23:00:32.334Z,12.20
2017-10-04T23:03:00.420Z,12.20
2017-10-04T23:05:28.535Z,12.20
2017-10-04T23:07:56.615Z,12.20
2017-10-04T23:10:24.754Z,12.20
2017-10-04T23:12:52.841Z,12.20
2017-10-04T23:15:20.953Z,12.20
2017-10-04T23:17:49.948Z,12.20
2017-10-04T23:20:18.068Z,12.10
2017-10-04T23:22:47.060Z,12.20
2017-10-04T23:25:15.158Z,12.10
2017-10-04T23:27:43.421Z,12.10
2017-10-04T23:30:11.707Z,12.20
2017-10-04T23:32:39.827Z,12.10
2017-10-04T23:35:07.912Z,12.10
2017-10-04T23:37:36.963Z,12.10
2017-10-04T23:40:05.248Z,12.10
2017-10-04T23:42:34.154Z,12.10
2017-10-04T23:45:02.483Z,12.10
2017-10-04T23:47:30.559Z,12.10
2017-10-04T23:49:58.873Z,12.20
2017-10-04T23:52:27.396Z,12.10
2017-10-04T23:54:56.331Z,12.10
2017-10-04T23:57:25.203Z,12.10
2017-10-04T23:59:53.324Z,12.10
